KLUK/LUK METAR and TAF weather

Enter ICAO airport designator
Station Type Date Time Source
KLUK METAR 2019/12/13 02:53 UTC NOAA

KLUK 130253Z 00000KT 10SM CLR M01/M03 A3027 RMK AO2 SLP255 T10111033 56012


Station Type Date Time Source
KLUK Decoded METAR 2019/12/13 02:53 UTC NOAA

CINCINNATI MUN LUNKEN FLD, OH, United States (KLUK) 39-06N 84-25W 155M
Dec 12, 2019 - 09:53 PM EST / 2019.12.13 0253 UTC
Wind: Calm:0
Visibility: 10 mile(s):0
Sky conditions: clear
Temperature: 30.0 F (-1.1 C)
Dew Point: 26.1 F (-3.3 C)
Relative Humidity: 84%
Pressure (altimeter): 30.27 in. Hg (1025 hPa)
Pressure tendency: 0.04 inches (1.2 hPa) lower than three hours ago
ob: KLUK 130253Z 00000KT 10SM CLR M01/M03 A3027 RMK AO2 SLP255 T10111033 56012
cycle: 3

Station Type Date Time Source
KLUK TAF 2019/12/13 03:03 UTC NOAA

TAF
AMD KLUK 130301Z 1303/1324 13003KT P6SM BKN220
FM131300 18003KT P6SM OVC025
FM131800 17005KT P6SM VCSH OVC015
FM132300 00000KT 4SM -RA BR OVC008

Example: see airport list